Photometre #525[NE_1.6] FORTH_RSLab AOT

File : 20220826_525.hum

26/08/2022,04:31:29,TEMP=22.0,BA=5.28,STAT.A=38.0,ExtBa=12.87
26/08/2022,04:34:38,TEMP=22.4,BA=5.28,STAT.A=38.0,ExtBa=12.70
26/08/2022,04:38:18,TEMP=22.6,BA=5.28,STAT.A=38.0,ExtBa=12.74
26/08/2022,04:40:21,TEMP=22.9,BA=5.24,STAT.D=37.5,ExtBa=12.72
26/08/2022,04:42:39,TEMP=23.1,BA=5.24,STAT.A=37.5,ExtBa=12.75
26/08/2022,04:45:21,TEMP=23.2,BA=5.24,STAT.D=37.5,ExtBa=12.77
26/08/2022,04:47:53,TEMP=23.4,BA=5.24,STAT.A=37.5,ExtBa=12.78
26/08/2022,04:50:19,TEMP=23.5,BA=5.20,STAT.D=37.5,ExtBa=12.78
26/08/2022,04:54:17,TEMP=23.6,BA=5.20,STAT.A=37.5,ExtBa=12.81
26/08/2022,05:00:21,TEMP=23.8,BA=5.28,STAT.D=38.0,ExtBa=12.83
26/08/2022,05:02:21,TEMP=24.2,BA=5.28,STAT.B=37.5,ExtBa=12.78
26/08/2022,05:12:01,TEMP=24.8,BA=5.20,STAT.A=37.5,ExtBa=12.81
26/08/2022,05:14:05,TEMP=25.1,BA=5.20,STAT.A=37.0,ExtBa=12.80
26/08/2022,05:16:07,TEMP=25.3,BA=5.20,STAT.A=37.0,ExtBa=12.81
26/08/2022,05:20:21,TEMP=25.4,BA=5.28,STAT.D=37.5,ExtBa=12.84
26/08/2022,05:22:15,TEMP=25.7,BA=5.28,STAT.A=37.5,ExtBa=12.80
26/08/2022,05:25:21,TEMP=25.8,BA=5.28,STAT.D=37.5,ExtBa=12.82
26/08/2022,05:27:17,TEMP=26.1,BA=5.28,STAT.C=37.0,ExtBa=12.79
26/08/2022,05:38:03,TEMP=26.3,BA=5.20,STAT.A=37.5,ExtBa=12.82
26/08/2022,05:40:21,TEMP=26.3,BA=5.32,STAT.D=37.5,ExtBa=12.81
26/08/2022,05:42:17,TEMP=26.4,BA=5.32,STAT.A=37.5,ExtBa=12.81
26/08/2022,05:45:21,TEMP=26.1,BA=5.32,STAT.D=38.0,ExtBa=12.82
26/08/2022,05:50:21,TEMP=25.8,BA=5.32,STAT.D=38.5,ExtBa=12.83
26/08/2022,05:52:16,TEMP=26.2,BA=5.32,STAT.A=38.0,ExtBa=12.80
26/08/2022,05:55:21,TEMP=26.4,BA=5.32,STAT.D=38.0,ExtBa=12.82
26/08/2022,06:00:21,TEMP=26.8,BA=5.32,STAT.D=38.0,ExtBa=12.84
26/08/2022,06:04:00,TEMP=27.2,BA=5.32,STAT.A=37.5,ExtBa=12.83
26/08/2022,06:10:22,TEMP=27.6,BA=5.32,STAT.D=38.0,ExtBa=12.84
26/08/2022,06:15:21,TEMP=28.1,BA=5.32,STAT.D=38.0,ExtBa=12.83
26/08/2022,06:18:39,TEMP=28.6,BA=5.32,STAT.B=37.5,ExtBa=12.82
26/08/2022,06:30:22,TEMP=29.4,BA=5.32,STAT.D=38.0,ExtBa=12.83
26/08/2022,06:35:22,TEMP=29.8,BA=5.32,STAT.D=38.0,ExtBa=12.83
26/08/2022,06:40:22,TEMP=30.1,BA=5.32,STAT.D=38.0,ExtBa=12.83
26/08/2022,06:45:22,TEMP=30.6,BA=5.32,STAT.D=38.0,ExtBa=12.83
26/08/2022,06:48:46,TEMP=31.0,BA=5.32,STAT.B=37.5,ExtBa=12.81
26/08/2022,06:58:09,TEMP=31.2,BA=5.28,STAT.D=38.0,ExtBa=12.80
26/08/2022,07:00:22,TEMP=31.1,BA=5.36,STAT.D=37.5,ExtBa=12.82
26/08/2022,07:05:22,TEMP=30.4,BA=5.36,STAT.D=38.5,ExtBa=12.94
26/08/2022,07:07:17,TEMP=30.6,BA=5.36,STAT.D=38.0,ExtBa=12.89
26/08/2022,07:10:22,TEMP=30.4,BA=5.40,STAT.D=38.5,ExtBa=12.99
26/08/2022,07:15:22,TEMP=30.5,BA=5.40,STAT.D=38.5,ExtBa=13.15
26/08/2022,07:20:22,TEMP=31.0,BA=5.44,STAT.D=38.0,ExtBa=13.28
26/08/2022,07:22:18,TEMP=31.5,BA=5.44,STAT.F,ExtBa=13.25
26/08/2022,09:23:40,TEMP=34.4,BA=5.36,STAT.D=35.0,ExtBa=13.76
26/08/2022,09:33:17,TEMP=34.0,BA=5.36,STAT.D=34.5,ExtBa=13.14
26/08/2022,09:42:43,TEMP=33.5,BA=5.36,STAT.D=34.5,ExtBa=13.66
26/08/2022,09:44:49,TEMP=32.6,BA=5.36,STAT.F,ExtBa=13.32
26/08/2022,09:50:53,TEMP=31.3,BA=5.36,STAT.D=38.0,ExtBa=13.12
26/08/2022,09:52:47,TEMP=31.3,BA=5.36,STAT.D=38.0,ExtBa=13.11
26/08/2022,09:54:49,TEMP=31.1,BA=5.36,STAT.D=38.0,ExtBa=13.15
26/08/2022,10:00:23,TEMP=30.3,BA=5.40,STAT.D=38.5,ExtBa=13.10
26/08/2022,10:05:23,TEMP=29.6,BA=5.40,STAT.D=39.0,ExtBa=13.07
26/08/2022,10:07:15,TEMP=29.7,BA=5.40,STAT.D=38.5,ExtBa=13.02
26/08/2022,10:10:23,TEMP=29.3,BA=5.40,STAT.D=38.5,ExtBa=13.04
26/08/2022,10:15:23,TEMP=28.9,BA=5.40,STAT.D=39.0,ExtBa=13.11
26/08/2022,10:20:23,TEMP=28.7,BA=5.40,STAT.D=38.5,ExtBa=13.11
26/08/2022,10:22:17,TEMP=28.9,BA=5.40,STAT.F,ExtBa=13.05
26/08/2022,10:25:23,TEMP=28.7,BA=5.40,STAT.D=38.5,ExtBa=13.07
26/08/2022,10:30:23,TEMP=28.6,BA=5.40,STAT.D=38.5,ExtBa=13.13
26/08/2022,10:35:23,TEMP=28.6,BA=5.40,STAT.D=38.5,ExtBa=13.58
26/08/2022,10:37:16,TEMP=29.1,BA=5.40,STAT.D=38.0,ExtBa=13.23
26/08/2022,10:40:23,TEMP=29.1,BA=5.40,STAT.D=37.5,ExtBa=13.04
26/08/2022,10:45:23,TEMP=28.8,BA=5.40,STAT.D=38.0,ExtBa=13.11
26/08/2022,10:50:23,TEMP=28.7,BA=5.44,STAT.D=38.5,ExtBa=13.17
26/08/2022,10:52:15,TEMP=28.9,BA=5.44,STAT.D=38.0,ExtBa=13.14
26/08/2022,10:55:21,TEMP=28.8,BA=5.44,STAT.D=38.0,ExtBa=13.22
26/08/2022,11:00:23,TEMP=28.8,BA=5.44,STAT.D=38.5,ExtBa=13.35
26/08/2022,11:05:23,TEMP=29.2,BA=5.44,STAT.D=38.0,ExtBa=13.36
26/08/2022,11:07:20,TEMP=29.6,BA=5.44,STAT.D=37.5,ExtBa=13.24
26/08/2022,11:10:23,TEMP=29.7,BA=5.44,STAT.D=37.5,ExtBa=13.76
26/08/2022,11:15:23,TEMP=30.1,BA=5.44,STAT.D=38.0,ExtBa=13.72
26/08/2022,11:20:23,TEMP=30.6,BA=5.44,STAT.D=37.5,ExtBa=13.94
26/08/2022,11:22:19,TEMP=31.2,BA=5.44,STAT.F,ExtBa=13.73
26/08/2022,11:30:21,TEMP=30.9,BA=5.40,STAT.D=38.0,ExtBa=13.09
26/08/2022,11:35:23,TEMP=30.4,BA=5.40,STAT.D=38.5,ExtBa=13.14
26/08/2022,11:37:16,TEMP=30.6,BA=5.40,STAT.D=38.0,ExtBa=13.08
26/08/2022,11:40:23,TEMP=30.4,BA=5.44,STAT.D=38.0,ExtBa=13.08
26/08/2022,11:45:23,TEMP=30.1,BA=5.44,STAT.D=38.5,ExtBa=13.10
26/08/2022,11:50:23,TEMP=30.0,BA=5.44,STAT.D=38.5,ExtBa=13.13
26/08/2022,11:52:16,TEMP=30.2,BA=5.44,STAT.D=38.0,ExtBa=13.05
26/08/2022,11:55:23,TEMP=30.1,BA=5.44,STAT.D=38.0,ExtBa=13.05
26/08/2022,12:00:23,TEMP=29.9,BA=5.44,STAT.D=38.5,ExtBa=13.07
26/08/2022,12:05:23,TEMP=29.9,BA=5.44,STAT.D=38.5,ExtBa=13.07
26/08/2022,12:07:16,TEMP=30.2,BA=5.44,STAT.D=38.0,ExtBa=13.01
26/08/2022,12:10:23,TEMP=30.1,BA=5.40,STAT.D=38.0,ExtBa=13.00
26/08/2022,12:15:23,TEMP=30.0,BA=5.40,STAT.D=38.5,ExtBa=12.97
26/08/2022,12:20:23,TEMP=29.9,BA=5.44,STAT.D=38.5,ExtBa=12.95
26/08/2022,12:22:18,TEMP=30.2,BA=5.44,STAT.F,ExtBa=12.91
26/08/2022,12:25:23,TEMP=30.1,BA=5.44,STAT.D=38.0,ExtBa=12.95
26/08/2022,12:30:23,TEMP=29.8,BA=5.44,STAT.D=38.5,ExtBa=12.97
26/08/2022,12:35:23,TEMP=29.8,BA=5.44,STAT.D=38.5,ExtBa=12.94
26/08/2022,12:37:15,TEMP=30.0,BA=5.44,STAT.D=38.0,ExtBa=12.89
26/08/2022,12:40:22,TEMP=29.8,BA=5.40,STAT.D=38.0,ExtBa=12.90
26/08/2022,12:45:22,TEMP=29.6,BA=5.40,STAT.D=38.5,ExtBa=12.92
26/08/2022,12:50:22,TEMP=29.3,BA=5.40,STAT.D=38.5,ExtBa=12.91
26/08/2022,12:52:15,TEMP=29.5,BA=5.40,STAT.D=38.0,ExtBa=12.88
26/08/2022,12:55:22,TEMP=29.3,BA=5.40,STAT.D=38.5,ExtBa=12.89
26/08/2022,13:00:22,TEMP=29.0,BA=5.40,STAT.D=38.5,ExtBa=12.91
26/08/2022,13:05:22,TEMP=29.0,BA=5.40,STAT.D=38.5,ExtBa=12.93
26/08/2022,13:07:15,TEMP=29.3,BA=5.40,STAT.D=38.0,ExtBa=12.90
26/08/2022,13:10:22,TEMP=29.2,BA=5.40,STAT.D=38.0,ExtBa=12.93
26/08/2022,13:15:22,TEMP=29.0,BA=5.40,STAT.D=38.5,ExtBa=12.98
26/08/2022,13:20:22,TEMP=29.0,BA=5.44,STAT.D=38.5,ExtBa=12.98
26/08/2022,13:22:17,TEMP=29.3,BA=5.44,STAT.F,ExtBa=12.92
26/08/2022,13:25:22,TEMP=29.1,BA=5.44,STAT.D=38.0,ExtBa=12.96
26/08/2022,13:30:22,TEMP=29.1,BA=5.44,STAT.D=38.5,ExtBa=13.15
26/08/2022,13:35:22,TEMP=29.2,BA=5.44,STAT.D=38.5,ExtBa=13.11
26/08/2022,13:37:15,TEMP=29.6,BA=5.44,STAT.D=37.5,ExtBa=13.04
26/08/2022,13:40:22,TEMP=29.6,BA=5.40,STAT.D=38.0,ExtBa=13.01
26/08/2022,13:45:22,TEMP=29.6,BA=5.40,STAT.D=38.0,ExtBa=13.08
26/08/2022,13:50:22,TEMP=29.7,BA=5.44,STAT.D=38.0,ExtBa=13.23
26/08/2022,13:52:16,TEMP=30.0,BA=5.44,STAT.D=37.5,ExtBa=13.23
26/08/2022,13:54:27,TEMP=30.2,BA=5.44,STAT.B=37.5,ExtBa=13.49
26/08/2022,14:05:22,TEMP=31.5,BA=5.36,STAT.D=37.5,ExtBa=13.33
26/08/2022,14:10:22,TEMP=32.2,BA=5.44,STAT.D=37.5,ExtBa=13.43
26/08/2022,14:20:21,TEMP=33.3,BA=5.44,STAT.D=37.0,ExtBa=13.45
26/08/2022,14:29:40,TEMP=34.9,BA=5.44,STAT.s
26/08/2022,14:30:11,TEMP=34.9,BA=5.36,STAT.s
26/08/2022,14:35:20,TEMP=31.7,BA=5.36,STAT.D=38.5,ExtBa=12.96
26/08/2022,14:38:52,TEMP=31.2,BA=5.36,STAT.A=38.5,ExtBa=12.90
26/08/2022,14:45:22,TEMP=29.6,BA=5.36,STAT.D=39.5,ExtBa=12.90
26/08/2022,14:50:21,TEMP=29.2,BA=5.40,STAT.D=39.5,ExtBa=12.89
26/08/2022,14:52:22,TEMP=29.3,BA=5.40,STAT.A=38.5,ExtBa=12.84
26/08/2022,14:55:21,TEMP=29.1,BA=5.40,STAT.D=39.0,ExtBa=12.86
26/08/2022,15:00:21,TEMP=28.8,BA=5.44,STAT.D=39.0,ExtBa=13.09
26/08/2022,15:02:15,TEMP=29.2,BA=5.44,STAT.A=38.0,ExtBa=13.07
26/08/2022,15:05:21,TEMP=29.3,BA=5.44,STAT.D=38.0,ExtBa=12.98
26/08/2022,15:08:54,TEMP=29.5,BA=5.44,STAT.A=38.0,ExtBa=13.08
26/08/2022,15:15:21,TEMP=29.8,BA=5.36,STAT.D=38.0,ExtBa=13.15
26/08/2022,15:17:15,TEMP=30.2,BA=5.36,STAT.C=37.5,ExtBa=13.06
26/08/2022,15:32:25,TEMP=30.1,BA=5.36,STAT.A=38.0,ExtBa=12.85
26/08/2022,15:34:28,TEMP=30.2,BA=5.36,STAT.A=38.0,ExtBa=12.84
26/08/2022,15:36:30,TEMP=30.1,BA=5.36,STAT.A=38.0,ExtBa=12.84
26/08/2022,15:38:33,TEMP=29.9,BA=5.36,STAT.A=38.0,ExtBa=12.84
26/08/2022,15:40:38,TEMP=29.8,BA=5.32,STAT.B=38.0,ExtBa=12.83
26/08/2022,15:50:02,TEMP=28.8,BA=5.32,STAT.A=38.5,ExtBa=12.82
26/08/2022,15:54:57,TEMP=28.4,BA=5.32,STAT.A=39.0,ExtBa=12.84
26/08/2022,16:00:11,TEMP=28.1,BA=5.32,STAT.A=39.0,ExtBa=12.84
26/08/2022,16:04:32,TEMP=27.9,BA=5.32,STAT.A=39.0,ExtBa=12.84
26/08/2022,16:08:12,TEMP=27.8,BA=5.32,STAT.A=38.5,ExtBa=12.83
26/08/2022,16:10:21,TEMP=27.8,BA=5.32,STAT.D=38.5,ExtBa=12.81
26/08/2022,16:12:12,TEMP=27.8,BA=5.32,STAT.A=38.0,ExtBa=12.80